Time;durP1;ratioP1;P1;durP2;ratioP2;P2;SDS_P1;SDS_P2;PMS_P1;PMS_P2;Temp;Humidity;BMP_temperature;BMP_pressure;BME280_temperature;BME280_humidity;BME280_pressure;Samples;Min_cycle;Max_cycle;Signal;HPM_P1;HPM_P2
2023/02/11 00:01:10;;;;;;;55.58;52.35;;;-3.60;93.60;;;;;;4161529;28;20232;-82
2023/02/11 00:03:30;;;;;;;55.65;52.63;;;-3.60;93.90;;;;;;4164201;28;20133;-82
2023/02/11 00:06:01;;;;;;;52.60;49.58;;;-3.50;93.30;;;;;;4164807;28;20113;-82
2023/02/11 00:08:21;;;;;;;56.72;53.78;;;-3.60;93.50;;;;;;4163013;28;20057;-81
2023/02/11 00:10:41;;;;;;;55.70;52.40;;;-3.60;93.50;;;;;;4162133;28;20048;-81
2023/02/11 00:13:01;;;;;;;52.20;49.15;;;-3.60;93.90;;;;;;4171912;28;20279;-81
2023/02/11 00:15:20;;;;;;;54.97;51.20;;;-3.70;94.10;;;;;;4159713;28;20084;-81
2023/02/11 00:17:40;;;;;;;56.78;53.45;;;-3.80;93.80;;;;;;4164875;28;20301;-81
2023/02/11 00:20:00;;;;;;;56.70;52.95;;;-3.70;93.60;;;;;;4162626;28;20068;-81
2023/02/11 00:22:20;;;;;;;49.17;46.88;;;-3.70;93.60;;;;;;4164909;28;20105;-81
2023/02/11 00:24:40;;;;;;;47.40;45.15;;;-3.40;92.00;;;;;;4165490;28;20148;-82
2023/02/11 00:26:59;;;;;;;49.42;46.72;;;-3.20;91.40;;;;;;4168738;28;20056;-82
2023/02/11 00:29:19;;;;;;;45.15;42.92;;;-3.20;91.90;;;;;;4160476;28;20053;-82
2023/02/11 00:31:39;;;;;;;48.35;45.65;;;-3.20;91.30;;;;;;4175164;28;20075;-82
2023/02/11 00:33:59;;;;;;;56.95;52.97;;;-3.10;91.30;;;;;;4170858;28;20117;-82
2023/02/11 00:36:25;;;;;;;50.78;47.80;;;-3.30;92.10;;;;;;4165011;28;20108;-82
2023/02/11 00:38:46;;;;;;;48.85;46.20;;;-3.40;92.80;;;;;;4161705;28;20149;-82
2023/02/11 00:41:06;;;;;;;58.10;52.78;;;-3.20;91.20;;;;;;4170401;28;20083;-82
2023/02/11 00:43:26;;;;;;;65.07;59.47;;;-3.40;93.50;;;;;;4161779;28;20220;-82
2023/02/11 00:45:46;;;;;;;73.07;65.88;;;-3.80;95.40;;;;;;4168554;28;20048;-82
2023/02/11 00:48:06;;;;;;;60.58;55.67;;;-4.10;96.40;;;;;;4161523;28;20056;-82
2023/02/11 00:50:26;;;;;;;82.97;72.20;;;-4.30;96.70;;;;;;4156157;28;20118;-82
2023/02/11 00:52:46;;;;;;;67.82;62.05;;;-4.30;96.80;;;;;;4167688;28;20076;-82
2023/02/11 00:55:07;;;;;;;67.07;60.70;;;-4.40;96.90;;;;;;4169574;28;20045;-82
2023/02/11 00:57:27;;;;;;;61.17;56.47;;;-4.40;97.30;;;;;;4168728;28;20117;-82
2023/02/11 00:59:47;;;;;;;57.40;53.00;;;-4.50;96.90;;;;;;4171382;28;20263;-82
2023/02/11 01:02:07;;;;;;;65.15;60.28;;;-4.40;96.50;;;;;;4168880;28;20064;-82
2023/02/11 01:04:27;;;;;;;59.60;55.10;;;-4.50;97.30;;;;;;4169817;28;20041;-82
2023/02/11 01:06:47;;;;;;;61.47;57.10;;;-4.50;97.10;;;;;;4164339;28;20049;-82
2023/02/11 01:09:07;;;;;;;63.10;58.20;;;-4.50;97.10;;;;;;4165548;28;20084;-82
2023/02/11 01:11:27;;;;;;;62.33;57.40;;;-4.50;97.20;;;;;;4168894;28;20049;-82
2023/02/11 01:13:48;;;;;;;56.63;52.88;;;-4.40;97.40;;;;;;4180351;28;20129;-82
2023/02/11 01:16:09;;;;;;;63.50;57.78;;;-4.50;97.30;;;;;;4168364;28;20359;-82
2023/02/11 01:21:07;;;;;;;55.88;52.17;;;-4.40;96.70;;;;;;4164722;28;20052;-82
2023/02/11 01:23:27;;;;;;;54.55;50.83;;;-4.40;96.10;;;;;;4166548;28;20055;-82
2023/02/11 01:25:48;;;;;;;60.35;56.00;;;-4.30;95.90;;;;;;4163105;28;20053;-82
2023/02/11 01:28:19;;;;;;;54.05;50.85;;;-4.30;95.90;;;;;;4163192;28;20114;-82
2023/02/11 01:30:39;;;;;;;57.45;54.13;;;-4.30;95.90;;;;;;4177064;28;20235;-82
2023/02/11 01:32:59;;;;;;;50.97;48.13;;;-4.20;95.60;;;;;;4164773;28;20082;-81
2023/02/11 01:35:19;;;;;;;56.55;53.30;;;-4.30;95.50;;;;;;4164303;28;20049;-82
2023/02/11 01:37:40;;;;;;;59.78;55.97;;;-4.20;95.40;;;;;;4164978;28;20133;-82
2023/02/11 01:40:06;;;;;;;58.63;55.25;;;-4.20;95.30;;;;;;4165426;28;20379;-82
2023/02/11 01:42:26;;;;;;;56.63;53.22;;;-4.20;95.30;;;;;;4163574;28;20051;-82
2023/02/11 01:44:50;;;;;;;58.30;53.97;;;-4.20;95.80;;;;;;4164935;28;20044;-82
2023/02/11 01:47:10;;;;;;;63.97;59.28;;;-4.30;96.10;;;;;;4162761;28;20083;-82
2023/02/11 01:49:35;;;;;;;58.35;54.40;;;-4.50;96.70;;;;;;4175603;28;20071;-82
2023/02/11 01:52:04;;;;;;;57.67;53.58;;;-4.50;96.90;;;;;;4163355;28;20048;-82
2023/02/11 01:57:21;;;;;;;59.53;55.08;;;-4.50;97.20;;;;;;4168498;28;20044;-82
2023/02/11 02:00:00;;;;;;;56.50;52.17;;;-4.60;97.30;;;;;;4164609;28;20113;-82
2023/02/11 02:02:25;;;;;;;56.50;52.88;;;-4.60;97.40;;;;;;4171471;28;20110;-82
2023/02/11 02:05:15;;;;;;;51.10;48.53;;;-4.60;96.80;;;;;;4176266;28;20045;-82
2023/02/11 02:07:53;;;;;;;52.53;49.60;;;-4.50;96.20;;;;;;4167541;28;20049;-82
2023/02/11 02:10:17;;;;;;;51.88;49.28;;;-4.30;96.00;;;;;;4163787;28;20264;-82
2023/02/11 02:12:37;;;;;;;52.20;49.38;;;-4.20;95.90;;;;;;4165197;28;20093;-82
2023/02/11 02:15:34;;;;;;;54.55;51.67;;;-4.20;95.80;;;;;;4165910;28;20457;-82
2023/02/11 02:18:07;;;;;;;48.53;45.53;;;-4.20;95.90;;;;;;4148607;28;20048;-82
2023/02/11 02:20:36;;;;;;;55.78;52.55;;;-4.30;96.00;;;;;;4165034;28;20045;-82
2023/02/11 02:23:10;;;;;;;49.67;46.90;;;-4.30;96.20;;;;;;4162281;28;20130;-82
2023/02/11 02:25:47;;;;;;;55.13;51.65;;;-4.40;96.30;;;;;;4160686;28;20092;-82
2023/02/11 02:28:37;;;;;;;50.22;47.00;;;-4.40;96.40;;;;;;4177296;28;20040;-82
2023/02/11 02:31:47;;;;;;;49.53;46.60;;;-4.40;96.40;;;;;;4162078;28;20424;-82
2023/02/11 02:34:21;;;;;;;50.05;47.13;;;-4.30;96.30;;;;;;4163538;28;20077;-82
2023/02/11 02:36:47;;;;;;;49.92;46.88;;;-4.30;96.40;;;;;;4164060;28;20049;-82
2023/02/11 02:39:19;;;;;;;50.30;47.53;;;-4.40;96.30;;;;;;4170367;28;20048;-82
2023/02/11 02:41:40;;;;;;;54.75;51.45;;;-4.50;96.70;;;;;;4162613;28;20271;-81
2023/02/11 02:44:01;;;;;;;57.45;53.50;;;-4.40;96.80;;;;;;4168738;28;20128;-82
2023/02/11 02:46:32;;;;;;;60.90;56.55;;;-4.50;96.80;;;;;;4178834;28;20056;-82
2023/02/11 02:48:53;;;;;;;62.95;58.40;;;-4.60;97.40;;;;;;4171573;28;20299;-82
2023/02/11 02:51:39;;;;;;;62.00;57.13;;;-4.70;97.90;;;;;;4164907;28;20064;-82
2023/02/11 02:54:23;;;;;;;62.45;58.17;;;-4.80;98.30;;;;;;4161962;28;20044;-82
2023/02/11 02:56:47;;;;;;;61.25;57.40;;;-4.90;98.50;;;;;;4162413;28;20057;-82
2023/02/11 02:59:27;;;;;;;;;;;-4.90;98.50;;;;;;4162925;28;20092;-82
2023/02/11 03:02:01;;;;;;;59.67;55.53;;;-4.90;98.30;;;;;;4163678;28;19924;-82
2023/02/11 03:04:31;;;;;;;64.30;60.17;;;-5.00;98.70;;;;;;4165796;28;20060;-82
2023/02/11 03:07:11;;;;;;;63.13;58.92;;;-5.10;99.00;;;;;;4166901;28;20386;-82
2023/02/11 03:09:43;;;;;;;62.67;57.97;;;-5.20;99.20;;;;;;4160618;28;20559;-82
2023/02/11 03:12:06;;;;;;;64.80;60.35;;;-5.20;99.50;;;;;;4163016;28;20053;-82
2023/02/11 03:14:27;;;;;;;61.47;57.40;;;-5.20;99.40;;;;;;4164403;28;20040;-82
2023/02/11 03:16:49;;;;;;;58.00;54.50;;;-5.10;99.30;;;;;;4160122;28;20080;-82
2023/02/11 03:19:14;;;;;;;60.53;56.67;;;-4.90;98.40;;;;;;4163874;28;20060;-82
2023/02/11 03:21:36;;;;;;;56.63;53.03;;;-4.80;98.40;;;;;;4161590;28;20072;-82
2023/02/11 03:24:00;;;;;;;55.63;52.35;;;-4.80;98.40;;;;;;4164972;28;20041;-82
2023/02/11 03:26:27;;;;;;;54.83;51.47;;;-4.80;98.40;;;;;;4161058;28;20065;-82
2023/02/11 03:29:06;;;;;;;60.63;56.30;;;-4.70;98.30;;;;;;4169978;28;20076;-82
2023/02/11 03:31:36;;;;;;;62.17;58.15;;;-4.80;98.60;;;;;;4164473;28;20044;-82
2023/02/11 03:33:59;;;;;;;57.78;54.58;;;-4.90;98.90;;;;;;4169795;28;20039;-82
2023/02/11 03:36:46;;;;;;;49.95;47.65;;;-4.90;98.80;;;;;;4163021;28;20052;-82
2023/02/11 03:39:09;;;;;;;46.78;44.53;;;-4.90;98.70;;;;;;4164782;28;20091;-82
2023/02/11 03:41:30;;;;;;;47.85;45.50;;;-4.90;98.30;;;;;;4164366;28;20121;-82
2023/02/11 03:43:54;;;;;;;52.22;49.83;;;-4.80;98.10;;;;;;4169703;28;20087;-82
2023/02/11 03:46:18;;;;;;;52.65;50.00;;;-4.80;98.00;;;;;;4162226;28;20036;-82
2023/02/11 03:48:43;;;;;;;53.33;51.05;;;-4.80;97.80;;;;;;4177826;28;20060;-82
2023/02/11 03:51:06;;;;;;;47.75;45.63;;;-4.70;97.60;;;;;;4163948;28;20139;-82
2023/02/11 03:53:27;;;;;;;49.10;46.70;;;-4.70;97.70;;;;;;4164067;28;20060;-82
2023/02/11 03:55:49;;;;;;;54.55;51.88;;;-4.70;97.80;;;;;;4168187;28;20153;-82
2023/02/11 03:58:10;;;;;;;51.30;48.90;;;-4.70;97.70;;;;;;4165341;28;20107;-82
2023/02/11 04:00:35;;;;;;;50.47;47.95;;;-4.70;97.80;;;;;;4162422;28;20576;-82
2023/02/11 04:02:55;;;;;;;53.03;50.47;;;-4.70;97.90;;;;;;4163680;28;20048;-82
2023/02/11 04:05:16;;;;;;;53.40;50.88;;;-4.80;98.10;;;;;;4161320;28;20045;-82
2023/02/11 04:07:36;;;;;;;47.55;45.55;;;-4.80;98.20;;;;;;4165982;28;20080;-82
2023/02/11 04:09:56;;;;;;;48.50;46.40;;;-4.80;98.10;;;;;;4165991;28;20359;-82
2023/02/11 04:12:15;;;;;;;50.40;48.22;;;-4.70;98.00;;;;;;4170971;28;20084;-82
2023/02/11 04:14:35;;;;;;;51.63;49.22;;;-4.60;97.90;;;;;;4161258;28;20241;-82
2023/02/11 04:16:55;;;;;;;51.30;49.15;;;-4.60;97.80;;;;;;4161656;28;20064;-82
2023/02/11 04:19:15;;;;;;;46.30;44.42;;;-4.60;97.80;;;;;;4165825;28;20112;-82
2023/02/11 04:21:34;;;;;;;49.30;47.00;;;-4.60;97.50;;;;;;4162403;28;20049;-82
2023/02/11 04:23:54;;;;;;;50.45;47.97;;;-4.60;97.50;;;;;;4159977;28;20044;-83
2023/02/11 04:26:14;;;;;;;46.47;44.47;;;-4.60;97.70;;;;;;4170196;28;20146;-82
2023/02/11 04:28:35;;;;;;;52.35;50.13;;;-4.60;97.70;;;;;;4175799;28;20421;-82
2023/02/11 04:30:55;;;;;;;50.33;47.80;;;-4.60;97.90;;;;;;4166393;28;20410;-82
2023/02/11 04:33:16;;;;;;;51.63;48.90;;;-4.80;98.20;;;;;;4167128;28;20069;-82
2023/02/11 04:35:35;;;;;;;52.65;50.20;;;-4.90;98.70;;;;;;4162553;28;20091;-83
2023/02/11 04:37:55;;;;;;;51.95;49.25;;;-5.00;98.80;;;;;;4163198;28;20091;-82
2023/02/11 04:40:16;;;;;;;50.67;48.47;;;-5.00;98.70;;;;;;4163635;28;20049;-82
2023/02/11 04:42:36;;;;;;;52.53;50.33;;;-4.90;98.70;;;;;;4163369;28;20100;-82
2023/02/11 04:44:55;;;;;;;51.47;49.15;;;-5.00;98.60;;;;;;4171326;28;20056;-82
2023/02/11 04:47:16;;;;;;;49.25;47.15;;;-4.90;98.50;;;;;;4166915;28;20113;-82
2023/02/11 04:49:35;;;;;;;48.92;46.53;;;-4.90;98.40;;;;;;4169685;28;20390;-82
2023/02/11 04:51:55;;;;;;;48.13;45.90;;;-4.80;98.30;;;;;;4162770;28;20053;-82
2023/02/11 04:54:15;;;;;;;49.00;46.85;;;-4.80;98.40;;;;;;4163490;28;20101;-82
2023/02/11 04:56:36;;;;;;;49.97;47.97;;;-4.90;98.70;;;;;;4161500;28;20084;-82
2023/02/11 04:58:56;;;;;;;47.35;45.15;;;-4.90;98.70;;;;;;4167201;28;20063;-82
2023/02/11 05:01:16;;;;;;;49.08;46.83;;;-4.90;98.60;;;;;;4160771;28;20045;-83
2023/02/11 05:03:37;;;;;;;47.65;45.40;;;-4.80;99.10;;;;;;4164038;28;20080;-83
2023/02/11 05:05:58;;;;;;;47.97;45.95;;;-4.80;98.60;;;;;;4168319;28;20117;-82
2023/02/11 05:08:18;;;;;;;47.58;45.58;;;-4.80;98.20;;;;;;4161478;28;20053;-82
2023/02/11 05:10:38;;;;;;;51.22;48.90;;;-4.90;98.40;;;;;;4164607;28;20053;-82
2023/02/11 05:12:58;;;;;;;50.70;48.35;;;-4.90;98.50;;;;;;4158882;28;20053;-82
2023/02/11 05:15:18;;;;;;;47.70;45.35;;;-4.90;98.70;;;;;;4161283;28;20052;-82
2023/02/11 05:17:38;;;;;;;51.42;49.00;;;-4.90;98.70;;;;;;4172229;28;20334;-82
2023/02/11 05:19:58;;;;;;;49.85;47.60;;;-5.00;98.70;;;;;;4162695;28;20125;-82
2023/02/11 05:22:18;;;;;;;49.20;46.63;;;-5.10;99.10;;;;;;4170428;28;20092;-82
2023/02/11 05:24:38;;;;;;;52.10;49.50;;;-5.20;99.50;;;;;;4162449;28;20045;-82
2023/02/11 05:26:58;;;;;;;48.83;46.47;;;-5.20;99.70;;;;;;4162673;28;20244;-83
2023/02/11 05:29:19;;;;;;;48.75;46.53;;;-5.30;99.50;;;;;;4165691;28;20092;-82
2023/02/11 05:31:39;;;;;;;53.38;50.95;;;-5.20;99.30;;;;;;4161167;28;20092;-82
2023/02/11 05:33:59;;;;;;;52.35;49.85;;;-5.20;99.30;;;;;;4164983;28;20085;-83
2023/02/11 05:36:19;;;;;;;51.38;49.25;;;-5.10;98.90;;;;;;4172208;28;20162;-83
2023/02/11 05:38:41;;;;;;;49.20;47.20;;;-5.10;98.90;;;;;;4161561;28;20044;-83
2023/02/11 05:41:02;;;;;;;47.17;45.47;;;-5.00;98.90;;;;;;4165867;28;20053;-83
2023/02/11 05:43:22;;;;;;;51.25;49.20;;;-5.00;98.70;;;;;;4163211;28;20106;-82
2023/02/11 05:45:42;;;;;;;49.97;48.10;;;-4.80;98.50;;;;;;4166248;28;20045;-83
2023/02/11 05:48:01;;;;;;;49.15;47.25;;;-4.80;98.30;;;;;;4166434;28;20056;-83
2023/02/11 05:50:22;;;;;;;47.88;46.20;;;-4.80;98.30;;;;;;4166394;28;20053;-82
2023/02/11 05:52:41;;;;;;;50.55;48.65;;;-4.70;98.30;;;;;;4159438;28;20571;-83
2023/02/11 05:55:02;;;;;;;46.53;44.60;;;-4.70;98.40;;;;;;4162813;28;20053;-82
2023/02/11 05:57:22;;;;;;;53.05;50.75;;;-4.80;98.50;;;;;;4165705;28;20575;-82
2023/02/11 05:59:42;;;;;;;49.10;46.90;;;-4.90;98.70;;;;;;4164084;28;20092;-82
2023/02/11 06:02:02;;;;;;;45.10;43.50;;;-4.90;98.80;;;;;;4164689;28;20076;-83
2023/02/11 06:04:22;;;;;;;50.53;48.47;;;-4.90;98.60;;;;;;4173911;28;20067;-82
2023/02/11 06:06:42;;;;;;;52.20;50.17;;;-5.00;99.10;;;;;;4165474;28;20296;-83
2023/02/11 06:09:02;;;;;;;44.80;43.08;;;-5.00;99.00;;;;;;4165605;28;20065;-82
2023/02/11 06:11:22;;;;;;;46.30;44.67;;;-4.90;98.50;;;;;;4168709;28;20083;-83
2023/02/11 06:13:42;;;;;;;48.45;46.47;;;-4.70;98.40;;;;;;4162922;28;20068;-83
2023/02/11 06:16:14;;;;;;;47.30;45.70;;;-4.80;98.20;;;;;;4167276;28;20371;-83
2023/02/11 06:18:35;;;;;;;50.65;48.78;;;-4.80;98.50;;;;;;4174497;28;20091;-83
2023/02/11 06:20:54;;;;;;;45.80;44.20;;;-4.80;98.40;;;;;;4167171;28;20061;-85
2023/02/11 06:23:15;;;;;;;46.47;44.60;;;-4.80;98.40;;;;;;4180862;28;20057;-85
2023/02/11 06:25:34;;;;;;;47.05;45.28;;;-4.80;98.80;;;;;;4163343;28;20053;-85
2023/02/11 06:27:54;;;;;;;45.90;44.38;;;-4.90;98.40;;;;;;4162963;28;20044;-85
2023/02/11 06:30:14;;;;;;;45.97;44.40;;;-4.90;98.70;;;;;;4171615;28;20056;-85
2023/02/11 06:32:35;;;;;;;49.10;47.20;;;-4.80;98.20;;;;;;4165483;28;20060;-85
2023/02/11 06:35:05;;;;;;;46.70;45.05;;;-4.80;98.20;;;;;;4160838;28;20053;-85
2023/02/11 06:37:25;;;;;;;56.17;52.67;;;-4.80;98.50;;;;;;4162691;28;20064;-85
2023/02/11 06:39:44;;;;;;;53.00;50.35;;;-4.90;99.70;;;;;;4165303;28;20052;-85
2023/02/11 06:42:05;;;;;;;49.75;47.63;;;-5.20;99.90;;;;;;4171786;28;20080;-85
2023/02/11 06:44:27;;;;;;;49.97;47.88;;;-5.30;99.90;;;;;;4166803;28;20106;-85
2023/02/11 06:46:47;;;;;;;51.75;49.85;;;-5.20;99.90;;;;;;4164426;28;20048;-85
2023/02/11 06:49:07;;;;;;;46.13;44.53;;;-5.10;99.00;;;;;;4171684;28;20080;-86
2023/02/11 06:51:27;;;;;;;48.17;46.42;;;-5.00;99.00;;;;;;4161707;28;20048;-85
2023/02/11 06:53:47;;;;;;;49.67;47.10;;;-5.00;98.90;;;;;;4165628;28;20066;-85
2023/02/11 06:56:11;;;;;;;58.05;54.85;;;-5.00;99.60;;;;;;4163310;28;20053;-86
2023/02/11 06:58:31;;;;;;;63.20;58.25;;;-5.00;99.30;;;;;;4160754;28;20059;-86
2023/02/11 07:00:51;;;;;;;56.92;53.20;;;-4.90;99.50;;;;;;4162740;28;20056;-86
2023/02/11 07:03:12;;;;;;;53.78;50.58;;;-4.80;99.80;;;;;;4172471;28;20048;-86
2023/02/11 07:05:33;;;;;;;55.67;52.58;;;-4.80;99.70;;;;;;4174680;28;20065;-85
2023/02/11 07:07:52;;;;;;;63.50;58.92;;;-4.80;99.70;;;;;;4164678;28;20049;-86
2023/02/11 07:10:13;;;;;;;60.13;55.47;;;-4.80;99.90;;;;;;4176352;28;20072;-86
2023/02/11 07:12:33;;;;;;;80.57;72.53;;;-4.80;99.50;;;;;;4176492;28;20335;-86
2023/02/11 07:14:52;;;;;;;72.57;66.13;;;-4.80;99.50;;;;;;4166218;28;20297;-86
2023/02/11 07:17:13;;;;;;;55.20;51.47;;;-4.70;99.90;;;;;;4163836;28;20353;-85
2023/02/11 07:19:33;;;;;;;69.97;63.35;;;-4.70;99.50;;;;;;4177250;28;20227;-85
2023/02/11 07:21:54;;;;;;;56.22;52.95;;;-4.50;99.50;;;;;;4174543;28;20103;-85
2023/02/11 07:24:14;;;;;;;46.55;44.30;;;-4.50;98.90;;;;;;4162755;28;20287;-85
2023/02/11 07:26:34;;;;;;;47.60;45.83;;;-4.30;98.40;;;;;;4159662;28;20049;-85
2023/02/11 07:28:54;;;;;;;44.47;42.67;;;-4.30;97.50;;;;;;4173969;28;20095;-85
2023/02/11 07:31:23;;;;;;;44.35;42.75;;;-4.10;97.20;;;;;;4168713;28;20057;-85
2023/02/11 07:33:44;;;;;;;43.25;41.67;;;-4.00;96.80;;;;;;4164115;28;20048;-85
2023/02/11 07:36:06;;;;;;;48.13;46.30;;;-3.90;96.50;;;;;;4162066;28;20088;-86
2023/02/11 07:38:26;;;;;;;50.38;48.33;;;-3.80;96.40;;;;;;4162538;28;20435;-85
2023/02/11 07:40:46;;;;;;;48.00;45.60;;;-3.70;96.50;;;;;;4162089;28;20104;-85
2023/02/11 07:43:06;;;;;;;44.90;43.33;;;-3.70;96.60;;;;;;4163693;28;20056;-86
2023/02/11 07:45:26;;;;;;;46.72;44.83;;;-3.70;96.30;;;;;;4159911;28;20067;-85
2023/02/11 07:47:46;;;;;;;44.10;42.60;;;-3.50;96.20;;;;;;4165584;28;20060;-85
2023/02/11 07:50:05;;;;;;;46.15;44.45;;;-3.40;95.60;;;;;;4163079;28;20083;-86
2023/02/11 07:52:29;;;;;;;45.80;44.10;;;-3.20;95.30;;;;;;4163849;28;20383;-85
2023/02/11 07:54:48;;;;;;;46.25;44.55;;;-3.10;95.20;;;;;;4173587;28;20427;-85
2023/02/11 07:57:09;;;;;;;47.22;44.88;;;-3.00;95.50;;;;;;4175473;28;20067;-85
2023/02/11 07:59:29;;;;;;;45.70;43.78;;;-3.00;95.80;;;;;;4163271;28;20056;-86
2023/02/11 08:01:50;;;;;;;38.38;36.97;;;-2.60;95.30;;;;;;4164312;28;20049;-85
2023/02/11 08:04:10;;;;;;;40.35;38.88;;;-2.50;94.30;;;;;;4159384;28;20056;-85
2023/02/11 08:06:33;;;;;;;45.20;42.90;;;-2.30;94.00;;;;;;4170318;28;20048;-86
2023/02/11 08:08:53;;;;;;;40.90;39.00;;;-2.30;93.90;;;;;;4162886;28;20039;-86
2023/02/11 08:11:25;;;;;;;50.88;46.13;;;-2.20;93.80;;;;;;4163616;28;20049;-86
2023/02/11 08:13:45;;;;;;;72.03;51.72;;;-2.20;94.20;;;;;;4165193;28;20108;-86
2023/02/11 08:16:06;;;;;;;22.98;21.15;;;-2.20;94.60;;;;;;4163010;28;20047;-86
2023/02/11 08:18:26;;;;;;;39.17;34.30;;;-2.00;93.40;;;;;;4159935;28;20096;-86
2023/02/11 08:20:46;;;;;;;73.05;50.72;;;-2.00;93.50;;;;;;4162795;28;20080;-86
2023/02/11 08:23:06;;;;;;;76.78;56.17;;;-1.80;93.80;;;;;;4170366;28;20235;-86
2023/02/11 08:25:27;;;;;;;73.00;65.00;;;-1.80;95.00;;;;;;4173657;28;20079;-86
2023/02/11 08:27:47;;;;;;;70.03;62.92;;;-1.80;95.60;;;;;;4159797;28;20056;-86
2023/02/11 08:30:07;;;;;;;64.13;57.85;;;-1.80;96.20;;;;;;4171045;28;20055;-87
2023/02/11 08:32:27;;;;;;;59.83;44.50;;;-1.70;96.40;;;;;;4160294;28;20053;-87
2023/02/11 08:34:51;;;;;;;49.35;42.35;;;-1.70;96.50;;;;;;4169605;28;20049;-87
2023/02/11 08:37:11;;;;;;;42.15;36.10;;;-1.60;96.30;;;;;;4158228;28;20057;-87
2023/02/11 08:39:31;;;;;;;30.00;27.05;;;-1.40;96.10;;;;;;4178871;28;20056;-87
2023/02/11 08:41:55;;;;;;;26.45;24.23;;;-1.40;94.60;;;;;;4164655;28;20041;-87
2023/02/11 08:44:16;;;;;;;25.10;23.98;;;-1.40;94.50;;;;;;4164136;28;20052;-87
2023/02/11 08:46:36;;;;;;;14.30;13.88;;;-1.30;92.80;;;;;;4165078;28;20072;-87
2023/02/11 08:48:56;;;;;;;14.02;13.57;;;-1.10;91.40;;;;;;4174458;28;20073;-87
2023/02/11 08:51:24;;;;;;;11.75;11.43;;;-0.80;90.40;;;;;;4160209;28;20065;-87
2023/02/11 08:53:44;;;;;;;12.65;12.35;;;-0.60;89.80;;;;;;4163180;28;20083;-87
2023/02/11 08:56:05;;;;;;;11.20;11.00;;;-0.50;88.60;;;;;;4160332;28;20278;-87
2023/02/11 08:58:25;;;;;;;11.00;10.60;;;-0.30;88.20;;;;;;4164377;28;20073;-87
2023/02/11 09:00:45;;;;;;;18.63;17.52;;;-0.20;88.40;;;;;;4159878;28;20382;-87
2023/02/11 09:03:05;;;;;;;28.05;25.35;;;-0.10;88.90;;;;;;4162331;28;20347;-87
2023/02/11 09:05:26;;;;;;;24.92;23.10;;;-0.10;90.50;;;;;;4175957;28;20048;-87
2023/02/11 09:07:45;;;;;;;21.15;19.70;;;-0.10;90.60;;;;;;4164796;28;20049;-87
2023/02/11 09:10:05;;;;;;;18.15;16.83;;;0.00;90.40;;;;;;4167965;28;20121;-87
2023/02/11 09:12:25;;;;;;;23.25;21.35;;;0.20;90.40;;;;;;4159424;28;20049;-87
2023/02/11 09:14:45;;;;;;;29.05;21.95;;;0.40;89.60;;;;;;4176652;28;20377;-87
2023/02/11 09:17:06;;;;;;;23.63;21.42;;;0.60;90.00;;;;;;4163741;28;20044;-87
2023/02/11 09:19:26;;;;;;;23.90;21.48;;;0.80;90.70;;;;;;4166963;28;20091;-87
2023/02/11 09:21:46;;;;;;;24.42;22.02;;;0.90;90.90;;;;;;4164958;28;20049;-87
2023/02/11 09:24:06;;;;;;;26.33;23.45;;;1.00;90.80;;;;;;4174972;28;20048;-87
2023/02/11 09:26:29;;;;;;;31.52;28.13;;;1.30;91.00;;;;;;4176956;28;20051;-87
2023/02/11 09:28:50;;;;;;;55.90;38.60;;;1.40;91.10;;;;;;4172119;28;20053;-87
2023/02/11 09:31:13;;;;;;;26.35;23.63;;;1.60;90.50;;;;;;4170679;28;20371;-87
2023/02/11 09:33:33;;;;;;;29.13;25.23;;;1.70;90.20;;;;;;4161914;28;20037;-87
2023/02/11 09:35:53;;;;;;;36.50;29.45;;;1.70;90.20;;;;;;4163255;28;20056;-87
2023/02/11 09:38:13;;;;;;;24.92;22.40;;;1.90;90.30;;;;;;4165541;28;20379;-87
2023/02/11 09:40:33;;;;;;;19.02;17.63;;;2.00;89.70;;;;;;4163848;28;20056;-87
2023/02/11 09:43:10;;;;;;;18.80;17.23;;;2.20;88.20;;;;;;4164910;28;20114;-87
2023/02/11 09:45:31;;;;;;;34.60;26.02;;;2.40;87.50;;;;;;4161433;28;20249;-87
2023/02/11 09:47:59;;;;;;;32.55;27.38;;;2.60;87.90;;;;;;4175500;28;20090;-87
2023/02/11 09:50:28;;;;;;;21.10;19.27;;;2.80;88.00;;;;;;4172548;28;20375;-87
2023/02/11 09:52:55;;;;;;;19.70;17.73;;;3.00;85.40;;;;;;4166251;28;20095;-87
2023/02/11 09:55:41;;;;;;;22.42;20.02;;;3.10;84.60;;;;;;4172062;28;20045;-87
2023/02/11 09:58:03;;;;;;;27.75;21.70;;;3.40;84.30;;;;;;4165317;28;20049;-87
2023/02/11 10:00:36;;;;;;;21.00;19.00;;;3.50;84.50;;;;;;4168315;28;20076;-87
2023/02/11 10:03:07;;;;;;;25.02;22.77;;;3.70;84.70;;;;;;4171203;28;20323;-87
2023/02/11 10:05:42;;;;;;;29.23;23.63;;;3.90;83.90;;;;;;4180470;28;20048;-86
2023/02/11 10:08:24;;;;;;;21.55;19.35;;;4.20;83.50;;;;;;4162144;28;20037;-86
2023/02/11 10:11:11;;;;;;;19.58;17.88;;;4.50;83.10;;;;;;4166119;28;20080;-86
2023/02/11 10:14:10;;;;;;;21.15;19.00;;;4.70;81.90;;;;;;4163998;28;20337;-86
2023/02/11 10:16:38;;;;;;;19.55;17.75;;;5.80;82.40;;;;;;4171909;28;20440;-86
2023/02/11 10:19:17;;;;;;;25.30;21.25;;;6.20;79.00;;;;;;4170484;28;20056;-87
2023/02/11 10:22:05;;;;;;;11.85;11.05;;;6.60;77.10;;;;;;4176683;28;20044;-87
2023/02/11 10:24:27;;;;;;;6.50;6.25;;;6.70;74.90;;;;;;4180507;28;20052;-87
2023/02/11 10:26:48;;;;;;;9.55;9.07;;;7.20;68.80;;;;;;4171051;28;20045;-86
2023/02/11 10:29:30;;;;;;;14.98;13.52;;;7.50;71.80;;;;;;4182223;28;20103;-87
2023/02/11 10:31:51;;;;;;;34.78;25.52;;;7.70;72.10;;;;;;4177588;28;20049;-87
2023/02/11 10:34:12;;;;;;;15.80;14.40;;;7.60;72.50;;;;;;4181024;28;20040;-87
2023/02/11 10:36:36;;;;;;;11.23;10.40;;;7.60;70.50;;;;;;4165533;28;20394;-87
2023/02/11 10:38:58;;;;;;;16.17;9.73;;;7.70;68.30;;;;;;4163558;28;20229;-85
2023/02/11 10:41:29;;;;;;;9.52;8.55;;;7.90;68.00;;;;;;4160005;28;20088;-85
2023/02/11 10:43:50;;;;;;;24.10;18.00;;;8.50;67.60;;;;;;4163961;28;20040;-85
2023/02/11 10:46:18;;;;;;;18.88;16.83;;;8.70;71.00;;;;;;4169247;28;20445;-85
2023/02/11 10:48:42;;;;;;;4.97;4.88;;;8.70;71.10;;;;;;4167002;28;20099;-84
2023/02/11 10:51:18;;;;;;;4.07;3.97;;;9.00;61.60;;;;;;4160283;28;20064;-84
2023/02/11 10:53:39;;;;;;;4.72;4.40;;;8.90;60.00;;;;;;4179341;28;20116;-84
2023/02/11 10:55:59;;;;;;;4.55;4.35;;;8.90;60.90;;;;;;4164914;28;20055;-84
2023/02/11 10:58:35;;;;;;;5.07;4.65;;;9.10;57.70;;;;;;4160343;28;20244;-84
2023/02/11 11:00:57;;;;;;;4.95;4.85;;;9.10;59.50;;;;;;4162600;28;20072;-84
2023/02/11 11:03:23;;;;;;;8.20;6.30;;;9.90;58.50;;;;;;4161038;28;20049;-84
2023/02/11 11:05:56;;;;;;;4.55;4.20;;;10.30;58.30;;;;;;4177115;28;20071;-84
2023/02/11 11:08:18;;;;;;;4.43;4.07;;;10.80;62.40;;;;;;4161987;28;20052;-85
2023/02/11 11:10:43;;;;;;;8.60;7.97;;;10.90;58.60;;;;;;4165724;28;20053;-85
2023/02/11 11:13:03;;;;;;;5.40;5.15;;;10.70;57.30;;;;;;4160590;28;20114;-84
2023/02/11 11:15:26;;;;;;;4.20;4.00;;;10.50;61.00;;;;;;4170847;28;20049;-83
2023/02/11 11:17:50;;;;;;;;;;;10.60;55.50;;;;;;4163752;28;20065;-84
2023/02/11 11:20:15;;;;;;;3.03;2.88;;;10.50;53.70;;;;;;4162521;28;20255;-84
2023/02/11 11:22:35;;;;;;;3.45;3.35;;;10.40;54.20;;;;;;4173161;28;20092;-84
2023/02/11 11:24:56;;;;;;;4.15;3.10;;;10.30;52.00;;;;;;4179050;28;20052;-84
2023/02/11 11:27:19;;;;;;;2.90;2.90;;;10.60;50.50;;;;;;4171197;28;20056;-84
2023/02/11 11:29:52;;;;;;;3.30;3.20;;;10.40;50.40;;;;;;4177831;28;20055;-85
2023/02/11 11:32:17;;;;;;;3.37;3.07;;;10.60;50.60;;;;;;4166572;28;20253;-84
2023/02/11 11:34:43;;;;;;;4.00;3.90;;;10.80;51.60;;;;;;4170400;28;20288;-85
2023/02/11 11:37:30;;;;;;;3.85;3.72;;;10.90;52.00;;;;;;4164353;28;20124;-84
2023/02/11 11:39:58;;;;;;;3.65;3.45;;;10.70;52.40;;;;;;4177491;28;20053;-84
2023/02/11 11:42:31;;;;;;;3.78;3.65;;;10.90;51.50;;;;;;4163465;28;20072;-84
2023/02/11 11:45:19;;;;;;;4.22;4.13;;;11.10;53.40;;;;;;4163642;28;20124;-85
2023/02/11 11:47:43;;;;;;;3.05;2.95;;;11.20;52.20;;;;;;4172376;28;20149;-85
2023/02/11 11:50:42;;;;;;;3.78;3.67;;;11.30;52.20;;;;;;4159383;28;20375;-85
2023/02/11 11:53:15;;;;;;;3.65;3.50;;;11.50;52.40;;;;;;4140746;28;20120;-85
2023/02/11 11:55:56;;;;;;;4.40;4.15;;;11.60;50.90;;;;;;4140047;28;20054;-85
2023/02/11 11:58:21;;;;;;;4.60;4.50;;;12.00;51.80;;;;;;4147680;28;20244;-85
2023/02/11 12:00:53;;;;;;;3.70;3.60;;;11.70;51.00;;;;;;4149603;28;20089;-85
2023/02/11 12:03:42;;;;;;;3.72;3.63;;;11.30;50.40;;;;;;4147258;28;20056;-85
2023/02/11 12:06:23;;;;;;;4.10;4.00;;;11.50;52.90;;;;;;4147245;28;20089;-84
2023/02/11 12:08:55;;;;;;;4.43;4.32;;;11.80;51.20;;;;;;4136577;28;20402;-84
2023/02/11 12:11:24;;;;;;;5.43;5.22;;;12.00;51.00;;;;;;4136797;28;20127;-87
2023/02/11 12:14:07;;;;;;;4.15;4.05;;;12.60;55.60;;;;;;4146564;28;20373;-88
2023/02/11 12:17:00;;;;;;;3.85;3.75;;;12.30;49.10;;;;;;4140135;28;20045;-87
2023/02/11 12:19:31;;;;;;;4.65;4.25;;;12.80;54.00;;;;;;4149520;28;20071;-88
2023/02/11 12:21:53;;;;;;;4.10;3.90;;;12.10;49.00;;;;;;4147746;28;20081;-87